EDDT/TXL METAR and TAF weather

Enter ICAO airport designator
Station Type Date Time Source
EDDT METAR 2020/04/07 16:20 UTC NOAA

EDDT 071620Z 34007KT 300V040 CAVOK 19/04 Q1031 NOSIG


Station Type Date Time Source
EDDT Decoded METAR 2020/04/07 16:20 UTC NOAA

Error!

Station Type Date Time Source
EDDT TAF 2020/04/07 12:27 UTC NOAA

TAF EDDT 071100Z 0712/0812 33008KT CAVOK
BECMG 0717/0720 05004KT
BECMG 0805/0808 12006KT

Example: see airport list